sensor_id;sensor_type;location;lat;lon;timestamp;pressure;altitude;pressure_sealevel;temperature;humidity
10476;BME280;26166;48.264;11.436;2022-08-01T00:03:01;96162.41;;;23.31;56.68
10476;BME280;26166;48.264;11.436;2022-08-01T00:06:01;96162.41;;;23.31;56.67
10476;BME280;26166;48.264;11.436;2022-08-01T00:09:01;96157.03;;;23.31;56.85
10476;BME280;26166;48.264;11.436;2022-08-01T00:12:01;96157.03;;;23.31;56.81
10476;BME280;26166;48.264;11.436;2022-08-01T00:15:02;96157.03;;;23.31;56.75
10476;BME280;26166;48.264;11.436;2022-08-01T00:18:03;96153.28;;;23.32;56.89
10476;BME280;26166;48.264;11.436;2022-08-01T00:21:04;96161.31;;;23.32;56.75
10476;BME280;26166;48.264;11.436;2022-08-01T00:24:04;96164.00;;;23.32;56.60
10476;BME280;26166;48.264;11.436;2022-08-01T00:27:04;96158.66;;;23.32;56.76
10476;BME280;26166;48.264;11.436;2022-08-01T00:30:04;96161.31;;;23.32;56.72
10476;BME280;26166;48.264;11.436;2022-08-01T00:33:05;96169.38;;;23.32;56.76
10476;BME280;26166;48.264;11.436;2022-08-01T00:36:05;96169.38;;;23.32;56.71
10476;BME280;26166;48.264;11.436;2022-08-01T00:39:05;96168.56;;;23.32;56.74
10476;BME280;26166;48.264;11.436;2022-08-01T00:42:06;96168.56;;;23.32;56.64
10476;BME280;26166;48.264;11.436;2022-08-01T00:45:07;96161.59;;;23.31;56.95
10476;BME280;26166;48.264;11.436;2022-08-01T00:48:08;96177.66;;;23.31;56.73
10476;BME280;26166;48.264;11.436;2022-08-01T00:51:08;96165.34;;;23.30;56.64
10476;BME280;26166;48.264;11.436;2022-08-01T00:54:08;96151.13;;;23.29;56.98
10476;BME280;26166;48.264;11.436;2022-08-01T00:57:10;96165.34;;;23.30;56.73
10476;BME280;26166;48.264;11.436;2022-08-01T01:00:10;96166.13;;;23.30;56.93
10476;BME280;26166;48.264;11.436;2022-08-01T01:03:10;96168.00;;;23.30;56.55
10476;BME280;26166;48.264;11.436;2022-08-01T01:16:13;96178.47;;;23.31;56.84
10476;BME280;26166;48.264;11.436;2022-08-01T01:19:13;96166.94;;;23.31;56.72
10476;BME280;26166;48.264;11.436;2022-08-01T01:28:40;96170.69;;;23.30;56.60
10476;BME280;26166;48.264;11.436;2022-08-01T01:31:48;96174.19;;;23.30;56.97
10476;BME280;26166;48.264;11.436;2022-08-01T01:34:50;96169.88;;;23.29;56.64
10476;BME280;26166;48.264;11.436;2022-08-01T01:37:54;96176.06;;;23.30;56.74
10476;BME280;26166;48.264;11.436;2022-08-01T01:40:55;96172.56;;;23.29;56.94
10476;BME280;26166;48.264;11.436;2022-08-01T01:43:57;96174.44;;;23.29;56.95
10476;BME280;26166;48.264;11.436;2022-08-01T01:46:58;96173.59;;;23.28;56.82
10476;BME280;26166;48.264;11.436;2022-08-01T01:49:59;96173.59;;;23.28;56.87
10476;BME280;26166;48.264;11.436;2022-08-01T01:53:00;96179.81;;;23.29;56.78
10476;BME280;26166;48.264;11.436;2022-08-01T01:56:02;96178.72;;;23.30;56.71
10476;BME280;26166;48.264;11.436;2022-08-01T01:59:02;96185.97;;;23.29;56.66
10476;BME280;26166;48.264;11.436;2022-08-01T02:02:04;96185.97;;;23.29;56.60
10476;BME280;26166;48.264;11.436;2022-08-01T02:05:06;96186.78;;;23.30;56.79
10476;BME280;26166;48.264;11.436;2022-08-01T02:08:08;96185.97;;;23.29;56.68
10476;BME280;26166;48.264;11.436;2022-08-01T02:11:09;96187.84;;;23.29;56.69
10476;BME280;26166;48.264;11.436;2022-08-01T02:14:19;96192.34;;;23.28;56.75
10476;BME280;26166;48.264;11.436;2022-08-01T02:17:20;96199.38;;;23.29;56.71
10476;BME280;26166;48.264;11.436;2022-08-01T02:20:21;96195.03;;;23.28;56.80
10476;BME280;26166;48.264;11.436;2022-08-01T02:23:21;96189.69;;;23.28;56.71
10476;BME280;26166;48.264;11.436;2022-08-01T02:26:22;96200.41;;;23.28;56.81
10476;BME280;26166;48.264;11.436;2022-08-01T02:29:26;96198.78;;;23.27;56.63
10476;BME280;26166;48.264;11.436;2022-08-01T02:32:31;96196.91;;;23.28;56.66
10476;BME280;26166;48.264;11.436;2022-08-01T02:35:35;96200.41;;;23.28;56.71
10476;BME280;26166;48.264;11.436;2022-08-01T02:38:40;96203.06;;;23.28;56.61
10476;BME280;26166;48.264;11.436;2022-08-01T02:41:42;96196.69;;;23.29;56.83
10476;BME280;26166;48.264;11.436;2022-08-01T02:44:43;96203.66;;;23.30;56.78
10476;BME280;26166;48.264;11.436;2022-08-01T02:47:44;96200.97;;;23.30;56.93
10476;BME280;26166;48.264;11.436;2022-08-01T02:50:47;96199.09;;;23.31;56.79
10476;BME280;26166;48.264;11.436;2022-08-01T02:53:48;96204.22;;;23.32;56.70
10476;BME280;26166;48.264;11.436;2022-08-01T02:56:50;96202.59;;;23.31;56.58
10476;BME280;26166;48.264;11.436;2022-08-01T02:59:51;96207.94;;;23.31;56.75
10476;BME280;26166;48.264;11.436;2022-08-01T03:02:53;96201.78;;;23.31;56.62
10476;BME280;26166;48.264;11.436;2022-08-01T03:05:55;96210.63;;;23.31;56.68
10476;BME280;26166;48.264;11.436;2022-08-01T03:08:56;96205.28;;;23.31;56.84
10476;BME280;26166;48.264;11.436;2022-08-01T03:11:59;96212.50;;;23.31;56.58
10476;BME280;26166;48.264;11.436;2022-08-01T03:15:00;96209.81;;;23.31;56.91
10476;BME280;26166;48.264;11.436;2022-08-01T03:18:02;96206.34;;;23.30;56.54
10476;BME280;26166;48.264;11.436;2022-08-01T03:21:04;96213.31;;;23.31;56.62
10476;BME280;26166;48.264;11.436;2022-08-01T03:24:05;96213.31;;;23.31;56.67
10476;BME280;26166;48.264;11.436;2022-08-01T03:27:07;96216.00;;;23.31;56.63
10476;BME280;26166;48.264;11.436;2022-08-01T03:30:08;96214.13;;;23.32;56.68
10476;BME280;26166;48.264;11.436;2022-08-01T03:33:10;96215.72;;;23.33;56.66
10476;BME280;26166;48.264;11.436;2022-08-01T03:36:11;96221.94;;;23.33;56.77
10476;BME280;26166;48.264;11.436;2022-08-01T03:39:12;96226.44;;;23.33;56.45
10476;BME280;26166;48.264;11.436;2022-08-01T03:42:15;96231.59;;;23.34;56.72
10476;BME280;26166;48.264;11.436;2022-08-01T03:45:19;96229.13;;;23.33;56.60
10476;BME280;26166;48.264;11.436;2022-08-01T03:48:22;96230.78;;;23.34;56.60
10476;BME280;26166;48.264;11.436;2022-08-01T03:51:26;96225.66;;;23.32;56.70
10476;BME280;26166;48.264;11.436;2022-08-01T03:54:28;96233.69;;;23.32;56.83
10476;BME280;26166;48.264;11.436;2022-08-01T03:57:30;96233.69;;;23.32;56.67
10476;BME280;26166;48.264;11.436;2022-08-01T04:00:30;96231.00;;;23.32;56.52
10476;BME280;26166;48.264;11.436;2022-08-01T04:03:31;96239.03;;;23.32;56.46
10476;BME280;26166;48.264;11.436;2022-08-01T04:06:32;96237.16;;;23.33;56.64
10476;BME280;26166;48.264;11.436;2022-08-01T04:09:32;96241.72;;;23.32;56.55
10476;BME280;26166;48.264;11.436;2022-08-01T04:12:32;96240.91;;;23.32;56.75
10476;BME280;26166;48.264;11.436;2022-08-01T04:15:33;96249.75;;;23.32;56.58
10476;BME280;26166;48.264;11.436;2022-08-01T04:18:33;96250.56;;;23.33;56.83
10476;BME280;26166;48.264;11.436;2022-08-01T04:21:34;96248.72;;;23.33;56.72
10476;BME280;26166;48.264;11.436;2022-08-01T04:24:35;96258.63;;;23.33;56.62
10476;BME280;26166;48.264;11.436;2022-08-01T04:27:37;96254.09;;;23.33;56.46
10476;BME280;26166;48.264;11.436;2022-08-01T04:30:38;96262.13;;;23.33;56.62
10476;BME280;26166;48.264;11.436;2022-08-01T04:33:40;96267.50;;;23.33;56.54
10476;BME280;26166;48.264;11.436;2022-08-01T04:36:41;96272.84;;;23.33;56.71
10476;BME280;26166;48.264;11.436;2022-08-01T04:39:44;96270.16;;;23.33;56.58
10476;BME280;26166;48.264;11.436;2022-08-01T04:42:45;96269.34;;;23.33;56.65
10476;BME280;26166;48.264;11.436;2022-08-01T04:45:48;96270.41;;;23.32;56.55
10476;BME280;26166;48.264;11.436;2022-08-01T04:48:50;96275.75;;;23.32;56.68
10476;BME280;26166;48.264;11.436;2022-08-01T04:51:53;96272.28;;;23.31;56.46
10476;BME280;26166;48.264;11.436;2022-08-01T04:54:57;96272.28;;;23.31;56.60
10476;BME280;26166;48.264;11.436;2022-08-01T04:57:57;96276.56;;;23.32;56.42
10476;BME280;26166;48.264;11.436;2022-08-01T05:00:57;96274.94;;;23.31;56.75
10476;BME280;26166;48.264;11.436;2022-08-01T05:03:58;96272.00;;;23.33;56.76
10476;BME280;26166;48.264;11.436;2022-08-01T05:06:58;96270.16;;;23.33;56.54
10476;BME280;26166;48.264;11.436;2022-08-01T05:09:58;96269.34;;;23.33;56.47
10476;BME280;26166;48.264;11.436;2022-08-01T05:12:58;96278.22;;;23.33;56.33
10476;BME280;26166;48.264;11.436;2022-08-01T05:15:58;96282.50;;;23.34;56.53
10476;BME280;26166;48.264;11.436;2022-08-01T05:18:59;96278.22;;;23.33;56.58
10476;BME280;26166;48.264;11.436;2022-08-01T05:22:03;96291.34;;;23.35;56.57
10476;BME280;26166;48.264;11.436;2022-08-01T05:25:04;96284.38;;;23.34;56.69
10476;BME280;26166;48.264;11.436;2022-08-01T05:28:05;96290.53;;;23.34;56.61
10476;BME280;26166;48.264;11.436;2022-08-01T05:31:05;96301.25;;;23.34;56.49
10476;BME280;26166;48.264;11.436;2022-08-01T05:34:05;96306.63;;;23.34;56.44
10476;BME280;26166;48.264;11.436;2022-08-01T05:37:05;96305.00;;;23.33;56.73
10476;BME280;26166;48.264;11.436;2022-08-01T05:40:07;96304.16;;;23.33;56.71
10476;BME280;26166;48.264;11.436;2022-08-01T05:43:07;96305.00;;;23.33;56.63
10476;BME280;26166;48.264;11.436;2022-08-01T05:46:08;96314.91;;;23.33;56.50
10476;BME280;26166;48.264;11.436;2022-08-01T05:49:08;96315.72;;;23.33;56.43
10476;BME280;26166;48.264;11.436;2022-08-01T05:52:08;96311.41;;;23.32;56.66
10476;BME280;26166;48.264;11.436;2022-08-01T05:55:09;96305.00;;;23.33;56.63
10476;BME280;26166;48.264;11.436;2022-08-01T05:58:09;96311.19;;;23.34;56.46
10476;BME280;26166;48.264;11.436;2022-08-01T06:01:10;96306.84;;;23.33;56.46
10476;BME280;26166;48.264;11.436;2022-08-01T06:04:10;96310.13;;;23.35;56.55
10476;BME280;26166;48.264;11.436;2022-08-01T06:07:11;96312.00;;;23.34;56.70
10476;BME280;26166;48.264;11.436;2022-08-01T06:10:11;96310.38;;;23.33;56.57
10476;BME280;26166;48.264;11.436;2022-08-01T06:13:14;96318.41;;;23.33;56.46
10476;BME280;26166;48.264;11.436;2022-08-01T06:16:14;96313.84;;;23.34;56.49
10476;BME280;26166;48.264;11.436;2022-08-01T06:19:14;96320.25;;;23.33;56.52
10476;BME280;26166;48.264;11.436;2022-08-01T06:22:15;96329.13;;;23.33;56.36
10476;BME280;26166;48.264;11.436;2022-08-01T06:25:15;96332.63;;;23.34;56.50
10476;BME280;26166;48.264;11.436;2022-08-01T06:28:15;96329.13;;;23.33;56.47
10476;BME280;26166;48.264;11.436;2022-08-01T06:31:16;96332.84;;;23.32;56.56
10476;BME280;26166;48.264;11.436;2022-08-01T06:34:16;96334.50;;;23.33;56.35
10476;BME280;26166;48.264;11.436;2022-08-01T06:37:16;96341.69;;;23.33;56.35
10476;BME280;26166;48.264;11.436;2022-08-01T06:40:16;96342.53;;;23.33;56.56
10476;BME280;26166;48.264;11.436;2022-08-01T06:43:17;96337.16;;;23.33;56.48
10476;BME280;26166;48.264;11.436;2022-08-01T06:46:19;96341.47;;;23.34;56.48
10476;BME280;26166;48.264;11.436;2022-08-01T06:49:19;96338.78;;;23.34;56.44
10476;BME280;26166;48.264;11.436;2022-08-01T06:52:19;96341.47;;;23.34;56.58
10476;BME280;26166;48.264;11.436;2022-08-01T06:55:19;96333.44;;;23.34;56.74
10476;BME280;26166;48.264;11.436;2022-08-01T06:58:20;96333.44;;;23.34;56.43
10476;BME280;26166;48.264;11.436;2022-08-01T07:01:20;96328.06;;;23.34;56.41
10476;BME280;26166;48.264;11.436;2022-08-01T07:04:20;96333.44;;;23.34;56.46
10476;BME280;26166;48.264;11.436;2022-08-01T07:07:20;96327.25;;;23.34;56.69
10476;BME280;26166;48.264;11.436;2022-08-01T07:10:20;96329.13;;;23.33;56.47
10476;BME280;26166;48.264;11.436;2022-08-01T07:13:21;96327.25;;;23.34;56.62
10476;BME280;26166;48.264;11.436;2022-08-01T07:16:24;96331.81;;;23.33;56.29
10476;BME280;26166;48.264;11.436;2022-08-01T07:19:25;96325.63;;;23.33;56.26
10476;BME280;26166;48.264;11.436;2022-08-01T07:22:25;96323.78;;;23.33;56.27
10476;BME280;26166;48.264;11.436;2022-08-01T07:25:25;96331.81;;;23.33;56.66
10476;BME280;26166;48.264;11.436;2022-08-01T07:28:25;96327.25;;;23.34;56.42
10476;BME280;26166;48.264;11.436;2022-08-01T07:31:25;96324.59;;;23.34;56.44
10476;BME280;26166;48.264;11.436;2022-08-01T07:34:26;96322.72;;;23.34;56.36
10476;BME280;26166;48.264;11.436;2022-08-01T07:37:26;96322.72;;;23.34;56.59
10476;BME280;26166;48.264;11.436;2022-08-01T07:40:26;96322.72;;;23.34;56.55
10476;BME280;26166;48.264;11.436;2022-08-01T07:43:26;96324.31;;;23.35;56.49
10476;BME280;26166;48.264;11.436;2022-08-01T07:46:26;96323.50;;;23.35;56.67
10476;BME280;26166;48.264;11.436;2022-08-01T07:49:27;96329.69;;;23.35;56.53
10476;BME280;26166;48.264;11.436;2022-08-01T07:52:27;96332.63;;;23.34;56.43
10476;BME280;26166;48.264;11.436;2022-08-01T07:55:27;96328.06;;;23.34;56.27
10476;BME280;26166;48.264;11.436;2022-08-01T07:58:27;96337.72;;;23.35;56.64
10476;BME280;26166;48.264;11.436;2022-08-01T08:01:28;96330.75;;;23.34;56.58
10476;BME280;26166;48.264;11.436;2022-08-01T08:04:28;96327.25;;;23.34;56.56
10476;BME280;26166;48.264;11.436;2022-08-01T08:07:28;96327.25;;;23.34;56.50
10476;BME280;26166;48.264;11.436;2022-08-01T08:10:29;96332.63;;;23.34;56.52
10476;BME280;26166;48.264;11.436;2022-08-01T08:13:29;96321.91;;;23.34;56.54
10476;BME280;26166;48.264;11.436;2022-08-01T08:16:29;96326.44;;;23.33;56.56
10476;BME280;26166;48.264;11.436;2022-08-01T08:19:29;96321.09;;;23.33;56.72
10476;BME280;26166;48.264;11.436;2022-08-01T08:22:31;96321.91;;;23.34;56.62
10476;BME280;26166;48.264;11.436;2022-08-01T08:25:31;96324.31;;;23.35;56.41
10476;BME280;26166;48.264;11.436;2022-08-01T08:28:33;96321.91;;;23.34;56.40
10476;BME280;26166;48.264;11.436;2022-08-01T08:31:34;96315.47;;;23.35;56.53
10476;BME280;26166;48.264;11.436;2022-08-01T08:34:34;96317.34;;;23.34;56.33
10476;BME280;26166;48.264;11.436;2022-08-01T08:37:34;96319.22;;;23.34;56.49
10476;BME280;26166;48.264;11.436;2022-08-01T08:40:35;96316.53;;;23.34;56.59
10476;BME280;26166;48.264;11.436;2022-08-01T08:43:36;96317.34;;;23.34;56.36
10476;BME280;26166;48.264;11.436;2022-08-01T08:46:40;96313.06;;;23.33;56.70
10476;BME280;26166;48.264;11.436;2022-08-01T08:49:42;96314.91;;;23.33;56.41
10476;BME280;26166;48.264;11.436;2022-08-01T08:52:42;96316.53;;;23.34;56.59
10476;BME280;26166;48.264;11.436;2022-08-01T08:55:59;96317.34;;;23.34;56.36
10476;BME280;26166;48.264;11.436;2022-08-01T08:59:00;96322.72;;;23.34;56.63
10476;BME280;26166;48.264;11.436;2022-08-01T09:02:08;96311.19;;;23.34;56.43
10476;BME280;26166;48.264;11.436;2022-08-01T09:05:10;96313.06;;;23.33;56.44
10476;BME280;26166;48.264;11.436;2022-08-01T09:08:10;96312.00;;;23.34;56.29
10476;BME280;26166;48.264;11.436;2022-08-01T09:11:11;96306.63;;;23.34;56.41
10476;BME280;26166;48.264;11.436;2022-08-01T09:14:16;96310.91;;;23.35;56.28
10476;BME280;26166;48.264;11.436;2022-08-01T09:17:39;96306.38;;;23.36;56.45
10476;BME280;26166;48.264;11.436;2022-08-01T09:20:39;96317.09;;;23.36;56.59
10476;BME280;26166;48.264;11.436;2022-08-01T09:23:49;96317.91;;;23.36;56.70
10476;BME280;26166;48.264;11.436;2022-08-01T09:26:50;96314.41;;;23.36;56.43
10476;BME280;26166;48.264;11.436;2022-08-01T09:29:51;96311.72;;;23.36;56.55
10476;BME280;26166;48.264;11.436;2022-08-01T09:32:59;96312.00;;;23.34;56.46
10476;BME280;26166;48.264;11.436;2022-08-01T09:36:00;96313.59;;;23.35;56.71
10476;BME280;26166;48.264;11.436;2022-08-01T09:39:04;96313.59;;;23.35;56.61
10476;BME280;26166;48.264;11.436;2022-08-01T09:42:21;96309.31;;;23.34;56.67
10476;BME280;26166;48.264;11.436;2022-08-01T09:45:34;96308.25;;;23.35;56.43
10476;BME280;26166;48.264;11.436;2022-08-01T09:48:35;96305.00;;;23.33;56.65
10476;BME280;26166;48.264;11.436;2022-08-01T09:51:37;96319.22;;;23.34;56.44
10476;BME280;26166;48.264;11.436;2022-08-01T09:54:38;96307.44;;;23.35;56.47
10476;BME280;26166;48.264;11.436;2022-08-01T09:57:38;96306.63;;;23.34;56.32
10476;BME280;26166;48.264;11.436;2022-08-01T10:00:39;96302.88;;;23.35;56.53
10476;BME280;26166;48.264;11.436;2022-08-01T10:03:39;96302.06;;;23.35;56.60
10476;BME280;26166;48.264;11.436;2022-08-01T10:06:39;96294.84;;;23.35;56.58
10476;BME280;26166;48.264;11.436;2022-08-01T10:09:42;96304.75;;;23.35;56.47
10476;BME280;26166;48.264;11.436;2022-08-01T10:12:43;96303.69;;;23.36;56.57
10476;BME280;26166;48.264;11.436;2022-08-01T10:15:43;96288.69;;;23.35;56.53
10476;BME280;26166;48.264;11.436;2022-08-01T10:18:43;96297.53;;;23.35;56.49
10476;BME280;26166;48.264;11.436;2022-08-01T10:21:45;96294.84;;;23.35;56.67
10476;BME280;26166;48.264;11.436;2022-08-01T10:24:50;96302.06;;;23.35;56.71
10476;BME280;26166;48.264;11.436;2022-08-01T10:27:54;96293.22;;;23.34;56.50
10476;BME280;26166;48.264;11.436;2022-08-01T10:30:57;96290.53;;;23.34;56.55
10476;BME280;26166;48.264;11.436;2022-08-01T10:33:59;96290.53;;;23.34;56.70
10476;BME280;26166;48.264;11.436;2022-08-01T10:37:00;96279.03;;;23.34;56.57
10476;BME280;26166;48.264;11.436;2022-08-01T10:40:01;96285.19;;;23.34;56.69
10476;BME280;26166;48.264;11.436;2022-08-01T10:43:01;96285.19;;;23.34;56.55
10476;BME280;26166;48.264;11.436;2022-08-01T10:46:03;96277.94;;;23.35;56.71
10476;BME280;26166;48.264;11.436;2022-08-01T10:49:07;96275.28;;;23.35;56.57
10476;BME280;26166;48.264;11.436;2022-08-01T10:52:14;96273.41;;;23.35;56.64
10476;BME280;26166;48.264;11.436;2022-08-01T10:55:14;96264.28;;;23.36;56.63
10476;BME280;26166;48.264;11.436;2022-08-01T10:58:33;96261.63;;;23.36;56.60
10476;BME280;26166;48.264;11.436;2022-08-01T11:01:37;96269.66;;;23.36;56.62
10476;BME280;26166;48.264;11.436;2022-08-01T11:04:42;96256.25;;;23.36;56.66
10476;BME280;26166;48.264;11.436;2022-08-01T11:08:26;96261.63;;;23.36;56.56
10476;BME280;26166;48.264;11.436;2022-08-01T11:11:07;96256.25;;;23.36;56.52
10476;BME280;26166;48.264;11.436;2022-08-01T11:14:08;96249.28;;;23.35;56.70
10476;BME280;26166;48.264;11.436;2022-08-01T11:20:35;96243.91;;;23.35;56.63
10476;BME280;26166;48.264;11.436;2022-08-01T11:23:46;96250.09;;;23.36;56.69
10476;BME280;26166;48.264;11.436;2022-08-01T11:33:09;96243.91;;;23.35;56.31
10476;BME280;26166;48.264;11.436;2022-08-01T11:39:11;96228.66;;;23.36;56.63
10476;BME280;26166;48.264;11.436;2022-08-01T11:42:18;96224.09;;;23.36;56.33
10476;BME280;26166;48.264;11.436;2022-08-01T11:45:18;96219.53;;;23.37;56.50
10476;BME280;26166;48.264;11.436;2022-08-01T11:48:19;96221.41;;;23.36;56.56
10476;BME280;26166;48.264;11.436;2022-08-01T11:51:20;96220.38;;;23.37;56.54
10476;BME280;26166;48.264;11.436;2022-08-01T11:54:24;96218.72;;;23.36;56.54
10476;BME280;26166;48.264;11.436;2022-08-01T11:57:26;96217.94;;;23.36;56.41
10476;BME280;26166;48.264;11.436;2022-08-01T12:00:26;96214.44;;;23.35;56.59
10476;BME280;26166;48.264;11.436;2022-08-01T12:03:28;96222.47;;;23.35;56.52
10476;BME280;26166;48.264;11.436;2022-08-01T12:06:28;96222.47;;;23.35;56.37
10476;BME280;26166;48.264;11.436;2022-08-01T12:09:29;96215.50;;;23.34;56.38
10476;BME280;26166;48.264;11.436;2022-08-01T12:12:30;96212.81;;;23.34;56.49
10476;BME280;26166;48.264;11.436;2022-08-01T12:15:34;96211.75;;;23.35;56.43
10476;BME280;26166;48.264;11.436;2022-08-01T12:18:41;96203.97;;;23.34;56.36
10476;BME280;26166;48.264;11.436;2022-08-01T12:21:41;96211.75;;;23.35;56.32
10476;BME280;26166;48.264;11.436;2022-08-01T12:24:42;96206.41;;;23.35;56.69
10476;BME280;26166;48.264;11.436;2022-08-01T12:27:43;96207.22;;;23.36;56.61
10476;BME280;26166;48.264;11.436;2022-08-01T12:30:43;96201.84;;;23.36;56.55
10476;BME280;26166;48.264;11.436;2022-08-01T12:33:47;96206.13;;;23.37;56.55
10476;BME280;26166;48.264;11.436;2022-08-01T12:36:47;96203.47;;;23.37;56.50
10476;BME280;26166;48.264;11.436;2022-08-01T12:39:47;96202.66;;;23.36;56.72
10476;BME280;26166;48.264;11.436;2022-08-01T12:42:49;96213.38;;;23.36;56.65
10476;BME280;26166;48.264;11.436;2022-08-01T12:45:50;96207.22;;;23.36;56.62
10476;BME280;26166;48.264;11.436;2022-08-01T12:48:50;96213.38;;;23.36;56.58
10476;BME280;26166;48.264;11.436;2022-08-01T12:51:51;96210.69;;;23.36;56.50
10476;BME280;26166;48.264;11.436;2022-08-01T12:54:59;96210.69;;;23.36;56.54
10476;BME280;26166;48.264;11.436;2022-08-01T12:58:03;96207.22;;;23.36;56.53
10476;BME280;26166;48.264;11.436;2022-08-01T13:01:05;96201.03;;;23.35;56.60
10476;BME280;26166;48.264;11.436;2022-08-01T13:04:06;96203.72;;;23.35;56.54
10476;BME280;26166;48.264;11.436;2022-08-01T13:07:06;96199.97;;;23.36;56.68
10476;BME280;26166;48.264;11.436;2022-08-01T13:10:07;96212.56;;;23.36;56.29
10476;BME280;26166;48.264;11.436;2022-08-01T13:13:07;96208.00;;;23.36;56.54
10476;BME280;26166;48.264;11.436;2022-08-01T13:16:09;96209.66;;;23.37;56.58
10476;BME280;26166;48.264;11.436;2022-08-01T13:19:09;96209.66;;;23.37;56.31
10476;BME280;26166;48.264;11.436;2022-08-01T13:22:10;96199.75;;;23.38;56.33
10476;BME280;26166;48.264;11.436;2022-08-01T13:25:11;96197.06;;;23.38;56.43
10476;BME280;26166;48.264;11.436;2022-08-01T13:28:14;96189.81;;;23.38;56.70
10476;BME280;26166;48.264;11.436;2022-08-01T13:31:15;96179.34;;;23.37;56.59
10476;BME280;26166;48.264;11.436;2022-08-01T13:34:15;96187.38;;;23.37;56.66
10476;BME280;26166;48.264;11.436;2022-08-01T13:37:15;96188.22;;;23.37;56.48
10476;BME280;26166;48.264;11.436;2022-08-01T13:40:22;96198.09;;;23.37;56.74
10476;BME280;26166;48.264;11.436;2022-08-01T13:43:23;96191.94;;;23.36;56.44
10476;BME280;26166;48.264;11.436;2022-08-01T13:46:23;96197.28;;;23.36;56.47
10476;BME280;26166;48.264;11.436;2022-08-01T13:49:23;96193.81;;;23.36;56.63
10476;BME280;26166;48.264;11.436;2022-08-01T13:52:23;96196.47;;;23.36;56.67
10476;BME280;26166;48.264;11.436;2022-08-01T13:55:24;96193.00;;;23.35;56.48
10476;BME280;26166;48.264;11.436;2022-08-01T13:58:24;96195.69;;;23.35;56.57
10476;BME280;26166;48.264;11.436;2022-08-01T14:01:24;96201.84;;;23.36;56.74
10476;BME280;26166;48.264;11.436;2022-08-01T14:04:24;96198.09;;;23.37;56.36
10476;BME280;26166;48.264;11.436;2022-08-01T14:07:25;96192.75;;;23.37;56.48
10476;BME280;26166;48.264;11.436;2022-08-01T14:10:25;96196.25;;;23.37;56.56
10476;BME280;26166;48.264;11.436;2022-08-01T14:13:25;96196.25;;;23.37;56.58
10476;BME280;26166;48.264;11.436;2022-08-01T14:16:26;96191.94;;;23.36;56.59
10476;BME280;26166;48.264;11.436;2022-08-01T14:19:26;96197.28;;;23.36;56.63
10476;BME280;26166;48.264;11.436;2022-08-01T14:22:26;96198.94;;;23.37;56.32
10476;BME280;26166;48.264;11.436;2022-08-01T14:25:26;96204.28;;;23.37;56.48
10476;BME280;26166;48.264;11.436;2022-08-01T14:28:26;96210.69;;;23.36;56.47
10476;BME280;26166;48.264;11.436;2022-08-01T14:31:27;96221.41;;;23.36;56.38
10476;BME280;26166;48.264;11.436;2022-08-01T14:34:29;96226.78;;;23.36;56.56
10476;BME280;26166;48.264;11.436;2022-08-01T14:37:29;96225.16;;;23.35;56.61
10476;BME280;26166;48.264;11.436;2022-08-01T14:40:29;96229.44;;;23.36;56.58
10476;BME280;26166;48.264;11.436;2022-08-01T14:43:30;96227.84;;;23.35;56.60
10476;BME280;26166;48.264;11.436;2022-08-01T14:46:31;96233.78;;;23.37;56.62
10476;BME280;26166;48.264;11.436;2022-08-01T14:49:31;96226.78;;;23.36;56.52
10476;BME280;26166;48.264;11.436;2022-08-01T14:52:32;96234.81;;;23.36;56.50
10476;BME280;26166;48.264;11.436;2022-08-01T14:55:32;96237.25;;;23.38;56.58
10476;BME280;26166;48.264;11.436;2022-08-01T14:58:33;96243.44;;;23.38;56.60
10476;BME280;26166;48.264;11.436;2022-08-01T15:01:33;96248.00;;;23.38;56.43
10476;BME280;26166;48.264;11.436;2022-08-01T15:04:33;96257.66;;;23.39;56.34
10476;BME280;26166;48.264;11.436;2022-08-01T15:07:33;96268.63;;;23.37;56.33
10476;BME280;26166;48.264;11.436;2022-08-01T15:10:34;96282.81;;;23.38;56.46
10476;BME280;26166;48.264;11.436;2022-08-01T15:13:34;96273.97;;;23.37;56.62
10476;BME280;26166;48.264;11.436;2022-08-01T15:16:34;96268.63;;;23.37;56.61
10476;BME280;26166;48.264;11.436;2022-08-01T15:19:34;96266.97;;;23.36;56.62
10476;BME280;26166;48.264;11.436;2022-08-01T15:22:35;96272.34;;;23.36;56.59
10476;BME280;26166;48.264;11.436;2022-08-01T15:25:35;96266.97;;;23.36;56.51
10476;BME280;26166;48.264;11.436;2022-08-01T15:28:35;96258.94;;;23.36;56.46
10476;BME280;26166;48.264;11.436;2022-08-01T15:31:35;96254.63;;;23.35;56.45
10476;BME280;26166;48.264;11.436;2022-08-01T15:34:36;96249.28;;;23.35;56.78
10476;BME280;26166;48.264;11.436;2022-08-01T15:37:36;96243.91;;;23.35;56.54
10476;BME280;26166;48.264;11.436;2022-08-01T15:40:36;96244.72;;;23.36;56.73
10476;BME280;26166;48.264;11.436;2022-08-01T15:43:37;96237.50;;;23.36;56.76
10476;BME280;26166;48.264;11.436;2022-08-01T15:46:37;96240.97;;;23.37;56.67
10476;BME280;26166;48.264;11.436;2022-08-01T15:49:37;96246.34;;;23.37;56.84
10476;BME280;26166;48.264;11.436;2022-08-01T15:52:38;96245.53;;;23.36;56.82
10476;BME280;26166;48.264;11.436;2022-08-01T15:55:38;96244.72;;;23.36;56.88
10476;BME280;26166;48.264;11.436;2022-08-01T15:58:38;96246.59;;;23.35;56.86
10476;BME280;26166;48.264;11.436;2022-08-01T16:01:39;96254.63;;;23.35;56.54
10476;BME280;26166;48.264;11.436;2022-08-01T16:04:39;96251.97;;;23.35;56.83
10476;BME280;26166;48.264;11.436;2022-08-01T16:07:39;96257.31;;;23.35;56.63
10476;BME280;26166;48.264;11.436;2022-08-01T16:10:40;96261.63;;;23.36;56.59
10476;BME280;26166;48.264;11.436;2022-08-01T16:13:40;96260.00;;;23.35;56.84
10476;BME280;26166;48.264;11.436;2022-08-01T16:16:40;96261.88;;;23.35;56.68
10476;BME280;26166;48.264;11.436;2022-08-01T16:19:41;96271.53;;;23.36;56.82